BIGK1: Big Hill Lake

Data processed at Sat Aug 18 2018 23:20


All information presented herein is the property of the government of the United States of America and may be revised or deleted at any time without prior notice.
Dissemination of this information without the expressed written consent of the Public Affairs Office, Tulsa District U.S. Army Corps of Engineers is strictly prohibited.
These data are gathered electronically and, as presented, have not undergone any form of quality control. These data are not guaranteed to be valid or correct.
Go to home page.
Go to station list.

Downstream station:


Previous Day
Next Day
Current Day
    
SHEF ID:       BIGK1     Big Hill Lake
STATION TYPE:  RESERVOIR
Normal Pool:  Bottom =   814.00, Top =   858.00

               PRECIP ELEVATION   STORAGE    INFLOW   RELEASE  AIR-TEMP  WIND-DIRWIND-SPEED REL-HUMID SOLAR-RAD   VOLTAGE  BAT-LOAD
                   in        ft     ac-ft       cfs       cfs         F       deg       mph         %      W/m2      volt      volt
              Ccp-Rev   Ccp-Rev   Ccp-Rev  Regi-Rev  Regi-Rev   Ccp-Rev   Ccp-Rev   Ccp-Rev   Ccp-Rev   Ccp-Rev   Ccp-Rev   Ccp-Rev
(US/Central)
08/18 00:00      0.00    858.28     23676        79        25     72.86    342.00      2.30     77.92      0.00     12.89     12.57
08/18 01:00      0.00    858.28     23676        80        27     72.57    349.40      2.00     81.49      0.00     12.87     12.57
08/18 02:00      0.00    858.29     23687        81        26     72.41    354.70      1.70     80.48      0.00     12.86     12.57
08/18 03:00      0.00    858.29     23687        54        27     71.55      2.30      2.00     81.57      0.00     12.86     12.49
08/18 04:00      0.00    858.29     23687        54        27     70.36    315.90      2.30     84.51      0.00     12.84     12.49
08/18 05:00      0.00    858.29     23687        27        27     66.74    275.20      1.20     96.97      0.00     12.82     12.49
08/18 06:00      0.00    858.29     23687        27        27     66.67    333.50      2.30     96.23      0.00     12.81     12.49
08/18 07:00      0.00    858.29     23687        26        27     67.19    343.80      2.30     91.87      0.30     12.79     12.49
08/18 08:00      0.00    858.29     23687        20        27     68.95    354.90      1.10     89.18     78.50     12.85     12.49
08/18 09:00      0.00    858.29     23687        15        27     72.18     24.00      1.60     79.04    247.10     12.93     12.49
08/18 10:00      0.00    858.29     23687        10        27     75.65     38.20      0.80     70.49    441.40     13.04     12.57
08/18 11:00      0.00    858.29     23687         4        27     77.70     56.00      4.20     61.75    634.30     13.23     12.73
08/18 12:00      0.00    858.29     23687         1        27     78.98     56.30      7.10     55.30    782.10     13.73     13.05
08/18 13:00      0.00    858.28     23676         1        26     80.08     67.00      5.80     52.47    859.50     13.47     12.49
08/18 14:00      0.00    858.28     23676         1        26     81.18     66.20      5.10     49.27    879.90     13.69     13.21
08/18 15:00      0.00    858.28     23676         1        26     82.20     87.50      5.90     45.73    857.20     13.45     13.21
08/18 16:00      0.00    858.28     23676         1        26     82.94     84.90      5.00     44.30    746.00     13.47     13.68
08/18 17:00      0.00    858.28     23676         0        26     83.39     87.40      5.10     45.39    622.50     13.42     13.37
08/18 18:00      0.00    858.27     23664         1        25     83.48    105.70      3.80     46.45    327.70     13.49     13.13
08/18 19:00      0.00    858.27     23664         6        24     82.18      3.30      1.20     58.89    110.60     13.55     13.13
08/18 20:00      0.00    858.27     23664        11        24     79.59    333.60      0.50     73.15     33.10     13.12     13.05
08/18 21:00      0.00    858.27     23664        16        24     76.80    326.20      0.70     80.35      0.00     12.93     12.65
08/18 22:00      0.00    858.27     23664        21        24     77.52     62.70      3.30     69.02      0.00     12.91     12.57
08/18 23:00      ----      ----      ----      -901      -901      ----      ----      ----      ----      ----      ----      ----